Time;durP1;ratioP1;P1;durP2;ratioP2;P2;SDS_P1;SDS_P2;PMS_P1;PMS_P2;Temp;Humidity;BMP_temperature;BMP_pressure;BME280_temperature;BME280_humidity;BME280_pressure;Samples;Min_cycle;Max_cycle;Signal;HPM_P1;HPM_P2
2022/03/07 00:03:11;;;;;;;5.18;3.15;;;;;;;-2.34;50.59;102799.69;4997054;28;20092;-73
2022/03/07 00:06:20;;;;;;;5.35;2.40;;;;;;;-2.38;50.27;102802.94;4971232;28;20034;-73
2022/03/07 00:13:33;;;;;;;7.05;3.10;;;;;;;-2.48;50.41;102805.91;4915927;28;20062;-74
2022/03/07 00:16:42;;;;;;;5.68;2.20;;;;;;;-2.42;50.75;102803.63;4907072;29;20148;-74
2022/03/07 00:19:49;;;;;;;4.35;1.83;;;;;;;-2.37;50.28;102802.13;4960436;28;20130;-74
2022/03/07 00:26:40;;;;;;;4.03;2.03;;;;;;;-2.33;50.34;102801.47;4946650;28;20073;-73
2022/03/07 00:30:08;;;;;;;;;;;;;;;;;;;;;
2022/03/07 00:37:32;;;;;;;4.50;1.83;;;;;;;-2.58;50.07;102813.94;4871211;29;20095;-74
2022/03/07 00:40:27;;;;;;;2.83;1.42;;;;;;;-2.65;50.53;102818.81;4860590;29;20045;-73
2022/03/07 00:43:39;;;;;;;4.95;2.47;;;;;;;-2.65;50.58;102821.38;4866321;29;20113;-74
2022/03/07 00:47:08;;;;;;;2.83;1.90;;;;;;;-2.66;50.32;102823.84;4863944;29;20052;-72
2022/03/07 00:51:09;;;;;;;5.32;1.73;;;;;;;-2.68;50.32;102823.78;4882334;29;20857;-71
2022/03/07 00:57:39;;;;;;;5.57;2.38;;;;;;;-2.77;50.32;102827.59;4868544;29;20091;-75
2022/03/07 01:08:16;;;;;;;5.20;2.63;;;;;;;-2.91;50.77;102826.97;4826418;29;20198;-73
2022/03/07 01:15:15;;;;;;;11.25;5.55;;;;;;;-2.87;51.21;102828.84;4896260;29;20040;-73
2022/03/07 01:18:11;;;;;;;28.10;9.85;;;;;;;-2.84;51.32;102832.44;4879740;28;20043;-72
2022/03/07 01:20:58;;;;;;;42.80;15.82;;;;;;;-2.68;50.84;102828.88;4974385;28;20046;-73
2022/03/07 01:24:21;;;;;;;60.97;19.75;;;;;;;-2.75;51.15;102831.09;4951076;28;20051;-73
2022/03/07 01:31:07;;;;;;;31.92;13.48;;;;;;;-2.70;51.21;102827.94;4983819;28;20144;-73
2022/03/07 01:37:40;;;;;;;17.02;7.43;;;;;;;-2.68;51.91;102821.22;4965785;28;20076;-74
2022/03/07 01:48:05;;;;;;;8.27;3.17;;;;;;;-2.35;52.30;102817.56;4833753;29;20187;-73
2022/03/07 01:51:04;;;;;;;5.18;2.25;;;;;;;-2.32;52.16;102810.88;4904139;29;20461;-73
2022/03/07 01:53:53;;;;;;;4.22;2.35;;;;;;;-2.34;52.15;102809.06;4906104;28;20046;-73
2022/03/07 01:56:51;;;;;;;3.92;1.90;;;;;;;-2.39;52.26;102816.53;4969471;28;20058;-73
2022/03/07 02:10:32;;;;;;;6.50;1.27;;;;;;;-2.19;52.20;102803.75;4941631;28;20523;-72
2022/03/07 02:13:35;;;;;;;3.08;1.05;;;;;;;-2.21;51.88;102808.81;4985802;28;20644;-73
2022/03/07 02:31:16;;;;;;;6.30;1.23;;;;;;;-2.47;51.87;102802.50;4919896;29;19925;-72
2022/03/07 02:57:56;;;;;;;2.72;0.82;;;;;;;-2.80;51.46;102789.94;4861721;29;20084;-75
2022/03/07 03:05:02;;;;;;;2.67;0.93;;;;;;;-2.80;51.43;102777.16;4792198;29;20140;-74
2022/03/07 03:12:10;;;;;;;;;;;;;;;-3.05;52.30;102773.47;4862036;29;20067;-75
2022/03/07 03:15:35;;;;;;;5.35;1.35;;;;;;;-3.00;51.99;102773.66;4778659;29;20395;-75
2022/03/07 03:18:24;;;;;;;2.65;1.45;;;;;;;-3.06;51.75;102770.81;4764797;29;20061;-73
2022/03/07 03:21:21;;;;;;;;;;;;;;;;;;;;;
2022/03/07 03:24:10;;;;;;;1.40;0.90;;;;;;;-3.19;52.10;102786.38;4782885;29;20320;-72
2022/03/07 03:31:39;;;;;;;2.30;0.98;;;;;;;-3.27;51.85;102783.47;4859540;28;20053;-72
2022/03/07 03:37:30;;;;;;;3.47;0.77;;;;;;;-3.27;51.80;102789.47;4977576;28;20077;-72
2022/03/07 03:40:37;;;;;;;2.72;1.05;;;;;;;-3.28;51.71;102791.94;4973401;28;20258;-73
2022/03/07 03:43:35;;;;;;;4.30;1.40;;;;;;;-3.38;51.70;102802.53;4984287;28;20375;-73
2022/03/07 03:46:53;;;;;;;2.78;1.20;;;;;;;-3.35;51.80;102806.09;5003871;28;20106;-72
2022/03/07 03:56:32;;;;;;;4.20;1.25;;;;;;;-3.38;51.47;102803.41;4983218;28;20080;-73
2022/03/07 04:00:23;;;;;;;2.20;1.15;;;;;;;-3.39;51.55;102793.97;4982242;28;20057;-72
2022/03/07 04:02:46;;;;;;;1.75;0.88;;;;;;;-3.38;51.48;102789.75;4911503;28;20066;-72
2022/03/07 04:05:38;;;;;;;6.50;1.30;;;;;;;-3.40;51.62;102796.47;4982915;28;20052;-73
2022/03/07 04:08:04;;;;;;;2.78;1.23;;;;;;;-3.38;51.51;102803.41;4935224;28;20552;-72
2022/03/07 04:11:20;;;;;;;;;;;;;;;;;;;;;
2022/03/07 04:17:39;;;;;;;;;;;;;;;-3.35;51.51;102803.53;4894513;29;20076;-73
2022/03/07 04:20:08;;;;;;;2.80;1.13;;;;;;;-3.34;51.48;102806.97;4907906;29;19923;-73
2022/03/07 04:26:47;;;;;;;;;;;;;;;;;;;;;
2022/03/07 04:29:51;;;;;;;6.25;2.00;;;;;;;-3.50;52.14;102824.13;4925478;28;20055;-73
2022/03/07 04:33:41;;;;;;;;;;;;;;;;;;;;;
2022/03/07 04:43:42;;;;;;;;;;;;;;;;;;;;;
2022/03/07 04:47:21;;;;;;;2.00;1.08;;;;;;;-3.18;51.93;102814.59;4939426;28;20050;-74
2022/03/07 04:50:24;;;;;;;6.28;1.73;;;;;;;-3.29;52.27;102808.09;4894159;29;20081;-74
2022/03/07 04:53:23;;;;;;;5.45;2.40;;;;;;;-3.39;52.14;102811.88;4864873;29;20047;-73
2022/03/07 04:56:47;;;;;;;6.60;1.08;;;;;;;-3.41;51.94;102813.47;4944507;28;20047;-72
2022/03/07 05:00:35;;;;;;;5.38;1.58;;;;;;;-3.63;51.74;102819.22;4940610;28;20043;-73
2022/03/07 05:03:41;;;;;;;4.50;1.45;;;;;;;-3.67;52.07;102817.31;4911208;28;20043;-73
2022/03/07 05:06:44;;;;;;;3.58;1.20;;;;;;;-3.59;52.27;102822.78;4958114;28;20084;-72
2022/03/07 05:13:58;;;;;;;4.72;2.22;;;;;;;-3.74;51.84;102825.44;4880109;29;20100;-72
2022/03/07 05:20:13;;;;;;;3.67;2.08;;;;;;;-3.80;52.02;102822.59;4876117;29;20662;-75
2022/03/07 05:23:40;;;;;;;2.47;1.08;;;;;;;-3.72;51.98;102828.97;4882937;29;20151;-73
2022/03/07 05:29:50;;;;;;;2.35;1.35;;;;;;;-3.64;51.54;102827.69;4859568;29;20169;-73
2022/03/07 05:32:34;;;;;;;4.20;1.55;;;;;;;-3.75;51.39;102824.56;4970652;28;20314;-72
2022/03/07 05:36:15;;;;;;;5.57;1.63;;;;;;;-3.79;51.77;102826.91;4986507;28;20033;-75
2022/03/07 05:42:16;;;;;;;10.73;2.33;;;;;;;-3.79;51.75;102821.78;4944352;28;20049;-74
2022/03/07 05:45:35;;;;;;;3.35;1.52;;;;;;;-3.80;51.76;102820.91;4959585;28;20112;-76
2022/03/07 05:48:01;;;;;;;3.97;1.23;;;;;;;-3.76;51.64;102812.63;4947556;28;20071;-76
2022/03/07 05:54:42;;;;;;;;;;;;;;;;;;;;;
2022/03/07 05:57:54;;;;;;;4.57;2.33;;;;;;;-3.94;51.87;102814.25;4902348;28;20052;-74
2022/03/07 06:00:55;;;;;;;11.93;3.33;;;;;;;-3.95;51.75;102821.00;4860775;29;20042;-75
2022/03/07 06:08:06;;;;;;;5.07;2.28;;;;;;;-3.90;51.60;102817.03;4856145;29;20195;-74
2022/03/07 06:19:47;;;;;;;;;;;;;;;;;;;;;
2022/03/07 06:22:18;;;;;;;12.15;4.68;;;;;;;-3.56;51.51;102821.28;4784291;29;20084;-73
2022/03/07 06:25:45;;;;;;;4.45;3.38;;;;;;;-3.49;51.58;102825.88;4810816;29;20050;-73
2022/03/07 06:28:33;;;;;;;7.40;4.03;;;;;;;-3.33;51.38;102824.09;4740145;29;20092;-71
2022/03/07 06:31:29;;;;;;;13.95;3.97;;;;;;;-3.18;51.08;102826.50;4903015;28;20114;-72
2022/03/07 06:42:26;;;;;;;11.77;4.45;;;;;;;-2.57;50.63;102818.28;4885962;29;20036;-72
2022/03/07 06:46:13;;;;;;;10.35;4.35;;;;;;;-2.14;50.20;102812.50;4944867;28;20085;-72
2022/03/07 06:53:48;;;;;;;9.15;4.18;;;;;;;-1.50;47.96;102810.13;4858339;28;20052;-74
2022/03/07 06:57:09;;;;;;;14.95;4.82;;;;;;;-1.27;48.28;102813.59;4892521;29;20079;-74
2022/03/07 07:00:42;;;;;;;12.55;4.05;;;;;;;-0.87;47.86;102819.50;4917207;28;20048;-73
2022/03/07 07:07:47;;;;;;;15.40;4.22;;;;;;;1.46;44.09;102816.25;4857562;29;20092;-74
2022/03/07 07:10:45;;;;;;;17.33;6.05;;;;;;;1.62;43.39;102820.16;4870984;29;20049;-71
2022/03/07 07:18:22;;;;;;;29.30;6.47;;;;;;;1.65;43.57;102827.97;4871717;29;20093;-73
2022/03/07 07:21:54;;;;;;;14.93;6.78;;;;;;;2.92;40.55;102825.25;4808321;29;20043;-72
2022/03/07 07:28:55;;;;;;;18.50;6.70;;;;;;;4.31;37.00;102827.22;4870600;29;20532;-73
2022/03/07 07:32:23;;;;;;;19.63;5.50;;;;;;;4.55;37.52;102823.31;4852531;29;20379;-71
2022/03/07 07:35:18;;;;;;;21.98;6.15;;;;;;;5.50;34.86;102834.22;4855545;29;20109;-74
2022/03/07 07:47:01;;;;;;;;;;;;;;;;;;;;;
2022/03/07 08:01:36;;;;;;;15.50;6.18;;;;;;;11.32;28.23;102824.16;4755805;29;20050;-74
2022/03/07 08:04:59;;;;;;;16.17;5.93;;;;;;;12.68;26.02;102829.13;4921380;28;20476;-73
2022/03/07 08:08:21;;;;;;;12.63;6.68;;;;;;;12.56;26.00;102842.47;4905364;29;20048;-73
2022/03/07 08:11:41;;;;;;;;;;;;;;;;;;;;;
2022/03/07 08:18:11;;;;;;;10.95;4.78;;;;;;;12.87;25.94;102834.97;4934989;28;20086;-71
2022/03/07 08:24:30;;;;;;;8.00;3.90;;;;;;;15.79;22.46;102832.19;4909470;28;20133;-74
2022/03/07 08:27:22;;;;;;;9.82;4.68;;;;;;;17.01;21.32;102831.69;4955749;28;20555;-73
2022/03/07 08:41:23;;;;;;;5.15;3.85;;;;;;;16.68;21.80;102837.22;4882604;29;20124;-73
2022/03/07 08:44:07;;;;;;;7.78;4.78;;;;;;;16.14;23.33;102836.38;4870397;29;20071;-73
2022/03/07 08:51:06;;;;;;;9.20;3.40;;;;;;;14.81;25.41;102840.28;4884069;29;20047;-72
2022/03/07 08:54:19;;;;;;;14.00;4.75;;;;;;;14.68;25.20;102831.84;4896965;28;20248;-73
2022/03/07 09:00:30;;;;;;;6.55;2.97;;;;;;;13.52;27.30;102845.03;4906202;29;20729;-74
2022/03/07 09:06:49;;;;;;;4.43;3.10;;;;;;;13.10;27.85;102850.25;4869665;29;20518;-72
2022/03/07 09:09:38;;;;;;;10.55;3.55;;;;;;;11.75;30.76;102844.53;4951657;28;20057;-71
2022/03/07 09:12:10;;;;;;;5.22;2.30;;;;;;;11.25;30.62;102848.66;4978442;28;20151;-72
2022/03/07 09:15:17;;;;;;;4.53;2.65;;;;;;;11.06;30.78;102842.75;4966143;28;20023;-72
2022/03/07 09:21:07;;;;;;;5.25;1.88;;;;;;;11.35;29.00;102852.03;4933290;28;20078;-71
2022/03/07 09:28:20;;;;;;;2.78;1.15;;;;;;;11.37;27.71;102853.75;4898146;28;20099;-72
2022/03/07 09:34:23;;;;;;;4.38;1.17;;;;;;;10.87;27.95;102857.78;4889919;29;20048;-70
2022/03/07 09:37:07;;;;;;;2.38;1.17;;;;;;;10.64;29.24;102853.59;4994361;28;20374;-73
2022/03/07 09:42:30;;;;;;;1.20;0.30;;;;;;;10.64;23.15;102851.00;4984168;28;20114;-73
2022/03/07 09:45:13;;;;;;;2.58;0.35;;;;;;;10.25;22.26;102846.06;4993877;28;20097;-70
2022/03/07 09:47:59;;;;;;;2.33;0.45;;;;;;;10.36;24.17;102854.72;5017289;23;21179;-79
2022/03/07 09:50:26;;;;;;;2.58;0.73;;;;;;;10.12;23.91;102846.16;5027959;28;20074;-78
2022/03/07 09:52:54;;;;;;;1.88;0.55;;;;;;;9.66;25.11;102850.75;4993407;28;20040;-77
2022/03/07 09:55:20;;;;;;;2.17;0.60;;;;;;;9.71;25.44;102854.22;4996202;28;20033;-77
2022/03/07 09:57:47;;;;;;;1.38;0.68;;;;;;;9.43;26.40;102858.66;4996740;28;20037;-77
2022/03/07 10:00:14;;;;;;;2.20;0.60;;;;;;;9.37;26.36;102852.59;5002802;28;20587;-79
2022/03/07 10:02:40;;;;;;;2.08;0.73;;;;;;;9.56;26.31;102856.00;5006961;28;20060;-78
2022/03/07 10:05:06;;;;;;;4.70;0.90;;;;;;;9.93;26.07;102848.03;5005658;28;20079;-79
2022/03/07 10:07:43;;;;;;;2.40;0.65;;;;;;;9.87;24.63;102844.56;4985885;28;20089;-77
2022/03/07 10:10:12;;;;;;;2.80;0.75;;;;;;;9.99;24.79;102850.59;5004711;28;20116;-79
2022/03/07 10:12:45;;;;;;;3.95;0.77;;;;;;;10.57;25.16;102844.09;4983899;28;20683;-79
2022/03/07 10:15:13;;;;;;;2.65;0.50;;;;;;;10.54;24.84;102838.88;5003431;28;20037;-78
2022/03/07 10:17:45;;;;;;;1.77;0.70;;;;;;;10.60;26.08;102837.97;4990096;28;20033;-76
2022/03/07 10:20:11;;;;;;;2.70;0.68;;;;;;;10.57;24.35;102841.47;5022057;28;20048;-79
2022/03/07 10:22:46;;;;;;;2.50;1.27;;;;;;;10.48;24.78;102838.03;4986783;28;20220;-79
2022/03/07 10:25:12;;;;;;;0.38;0.10;;;;;;;10.22;22.72;102837.38;5005576;28;20049;-80
2022/03/07 10:27:40;;;;;;;1.67;0.47;;;;;;;10.41;23.96;102834.63;4965340;28;20052;-78
2022/03/07 10:30:10;;;;;;;1.65;0.32;;;;;;;10.45;22.67;102844.16;4990485;28;20037;-79
2022/03/07 10:32:36;;;;;;;2.65;0.68;;;;;;;10.52;26.04;102845.84;4973157;28;20042;-80
2022/03/07 10:35:06;;;;;;;1.75;0.80;;;;;;;10.66;25.66;102837.03;4995328;28;20860;-80
2022/03/07 10:37:37;;;;;;;1.25;0.50;;;;;;;11.56;24.85;102841.31;5007262;28;20040;-79
2022/03/07 10:40:16;;;;;;;2.03;0.50;;;;;;;11.41;23.29;102844.97;5002161;28;20041;-81
2022/03/07 10:42:47;;;;;;;2.42;0.50;;;;;;;11.33;23.09;102851.19;4986864;28;20038;-79
2022/03/07 10:45:14;;;;;;;0.60;0.20;;;;;;;11.10;21.12;102848.84;4995070;28;20029;-81
2022/03/07 10:47:43;;;;;;;0.75;0.30;;;;;;;11.03;21.93;102835.81;5006655;28;20060;-77
2022/03/07 10:50:09;;;;;;;1.00;0.15;;;;;;;11.22;20.11;102830.38;5007478;28;20477;-80
2022/03/07 10:52:37;;;;;;;1.58;0.20;;;;;;;11.46;20.10;102837.94;4988294;28;20037;-79
2022/03/07 10:55:05;;;;;;;1.70;0.30;;;;;;;11.40;21.69;102831.91;5007733;28;20079;-80
2022/03/07 10:57:36;;;;;;;2.35;0.20;;;;;;;11.65;21.11;102832.47;5013071;28;20393;-78
2022/03/07 11:00:10;;;;;;;0.90;0.20;;;;;;;11.47;19.77;102838.81;4999619;28;20037;-77
2022/03/07 11:02:44;;;;;;;0.70;0.20;;;;;;;11.14;19.63;102834.84;4978351;28;20415;-77
2022/03/07 11:05:12;;;;;;;0.93;0.40;;;;;;;10.88;19.52;102838.56;4985102;28;20064;-78
2022/03/07 11:07:40;;;;;;;1.17;0.10;;;;;;;10.93;20.87;102831.56;4977269;28;20040;-80
2022/03/07 11:10:08;;;;;;;0.25;0.00;;;;;;;10.69;18.98;102837.00;4986673;28;20041;-78
2022/03/07 11:12:34;;;;;;;0.30;0.00;;;;;;;10.96;18.30;102833.28;5000108;28;20037;-78
2022/03/07 11:15:08;;;;;;;0.55;0.13;;;;;;;11.92;18.43;102826.00;4979997;28;20302;-78
2022/03/07 11:17:39;;;;;;;0.65;0.00;;;;;;;11.28;17.44;102830.28;4994319;28;20694;-79
2022/03/07 11:20:06;;;;;;;0.50;0.10;;;;;;;10.82;19.80;102839.53;4980376;28;20037;-80
2022/03/07 11:22:34;;;;;;;1.77;0.30;;;;;;;11.03;19.35;102832.34;4985165;28;20054;-78
2022/03/07 11:25:01;;;;;;;3.10;0.30;;;;;;;11.30;20.71;102825.06;4979211;28;20042;-78
2022/03/07 11:27:27;;;;;;;0.73;0.20;;;;;;;11.33;20.04;102831.13;4992793;28;20037;-77
2022/03/07 11:29:55;;;;;;;1.00;0.30;;;;;;;11.12;20.31;102828.75;4994854;28;20040;-78
2022/03/07 11:32:20;;;;;;;0.90;0.20;;;;;;;10.98;21.20;102829.75;5002116;28;20052;-79
2022/03/07 11:34:55;;;;;;;2.42;0.40;;;;;;;11.21;21.32;102826.88;4978000;28;20025;-79
2022/03/07 11:37:29;;;;;;;1.30;0.55;;;;;;;11.88;20.45;102826.94;4997232;28;20060;-77
2022/03/07 11:39:58;;;;;;;1.27;0.30;;;;;;;11.72;20.23;102817.53;5011146;28;20158;-78
2022/03/07 11:42:34;;;;;;;1.67;0.45;;;;;;;11.94;19.58;102823.38;4998774;28;20060;-80
2022/03/07 11:45:06;;;;;;;0.70;0.20;;;;;;;12.24;20.54;102822.00;4993806;28;20096;-80
2022/03/07 11:47:36;;;;;;;1.77;0.20;;;;;;;12.66;19.40;102828.28;4983112;28;20074;-78
2022/03/07 11:50:02;;;;;;;1.15;0.28;;;;;;;12.35;18.89;102820.06;4988379;28;20042;-80
2022/03/07 11:52:28;;;;;;;1.23;0.20;;;;;;;11.56;19.49;102819.50;4987839;28;20053;-78
2022/03/07 11:55:00;;;;;;;1.35;0.35;;;;;;;11.03;20.11;102825.34;4987965;28;20061;-77
2022/03/07 11:57:32;;;;;;;;;;;;;;;10.88;20.54;102811.56;4997372;28;20072;-79
2022/03/07 12:00:10;;;;;;;1.05;0.60;;;;;;;10.61;20.97;102809.16;4986624;28;20200;-79
2022/03/07 12:02:45;;;;;;;1.52;0.40;;;;;;;10.53;21.05;102811.00;4997218;28;20030;-79
2022/03/07 12:05:32;;;;;;;2.17;0.40;;;;;;;10.77;21.33;102803.78;4985317;28;20033;-80
2022/03/07 12:08:11;;;;;;;1.00;0.38;;;;;;;10.84;21.74;102800.28;4979797;28;20130;-78
2022/03/07 12:10:58;;;;;;;1.00;0.30;;;;;;;11.05;20.87;102805.25;4983062;28;20037;-78
2022/03/07 12:13:24;;;;;;;0.70;0.40;;;;;;;10.80;21.07;102793.31;4980634;28;20061;-78
2022/03/07 12:15:55;;;;;;;2.80;0.90;;;;;;;11.10;21.16;102788.63;4983098;28;20475;-80
2022/03/07 12:18:22;;;;;;;3.40;0.38;;;;;;;11.39;21.29;102783.91;4995092;28;20128;-80
2022/03/07 12:20:58;;;;;;;3.95;0.30;;;;;;;12.41;20.52;102787.66;4979719;28;20441;-79
2022/03/07 12:23:29;;;;;;;1.23;0.38;;;;;;;12.69;20.35;102781.06;4985392;28;20117;-78
2022/03/07 12:26:04;;;;;;;1.57;0.60;;;;;;;11.46;20.73;102775.09;5013742;28;20038;-79
2022/03/07 12:28:35;;;;;;;3.38;0.57;;;;;;;11.32;20.72;102770.94;5010236;28;20044;-79
2022/03/07 12:31:03;;;;;;;0.90;0.20;;;;;;;11.15;20.13;102776.34;4997466;28;20388;-78
2022/03/07 12:33:29;;;;;;;1.13;0.20;;;;;;;10.78;20.11;102775.00;4999668;28;20411;-79
2022/03/07 12:36:02;;;;;;;0.80;0.30;;;;;;;10.63;20.09;102773.41;4998263;28;20048;-79
2022/03/07 12:38:30;;;;;;;0.98;0.20;;;;;;;10.27;21.11;102766.78;4999648;28;20467;-79
2022/03/07 12:41:14;;;;;;;1.98;0.50;;;;;;;10.67;20.36;102771.63;4979385;28;20088;-80
2022/03/07 12:44:36;;;;;;;1.65;0.30;;;;;;;10.92;20.21;102766.16;4971092;28;20527;-79
2022/03/07 12:47:38;;;;;;;0.55;0.25;;;;;;;10.86;20.48;102764.50;4980431;28;21008;-80
2022/03/07 12:50:32;;;;;;;;;;;;;;;;;;;;;
2022/03/07 12:53:49;;;;;;;1.13;0.43;;;;;;;10.75;21.05;102767.19;4987417;28;20037;-77
2022/03/07 12:56:46;;;;;;;1.27;0.80;;;;;;;11.46;21.05;102746.31;4967899;28;20107;-79
2022/03/07 12:59:24;;;;;;;2.05;0.52;;;;;;;11.46;21.02;102753.25;4976309;28;20180;-79
2022/03/07 13:01:52;;;;;;;2.25;0.40;;;;;;;11.37;20.77;102751.63;4997937;28;20390;-78
2022/03/07 13:04:20;;;;;;;1.85;0.30;;;;;;;11.48;21.51;102746.25;4992726;28;20038;-78
2022/03/07 13:06:48;;;;;;;2.22;0.40;;;;;;;11.16;20.61;102739.72;4991079;28;20030;-78
2022/03/07 13:09:15;;;;;;;1.10;0.63;;;;;;;11.22;20.70;102738.78;4981138;28;20084;-76
2022/03/07 13:11:47;;;;;;;1.67;0.50;;;;;;;11.52;20.43;102741.84;4980379;28;20037;-79
2022/03/07 13:14:27;;;;;;;2.70;0.40;;;;;;;11.70;21.09;102730.25;4995470;28;20029;-78
2022/03/07 13:16:54;;;;;;;2.58;0.68;;;;;;;12.22;19.91;102730.31;4978072;28;20029;-79
2022/03/07 13:19:23;;;;;;;3.15;1.08;;;;;;;12.10;20.52;102720.00;4998141;28;20046;-79
2022/03/07 13:21:50;;;;;;;1.88;0.50;;;;;;;12.40;20.03;102722.97;4993622;28;20029;-78
2022/03/07 13:24:22;;;;;;;1.20;0.57;;;;;;;12.10;19.50;102725.25;4962007;28;20129;-79
2022/03/07 13:26:56;;;;;;;;;;;;;;;11.82;20.67;102714.34;4989635;28;20460;-79
2022/03/07 13:29:24;;;;;;;1.27;0.38;;;;;;;12.37;19.72;102708.16;4972374;28;19944;-78
2022/03/07 13:31:53;;;;;;;2.38;0.40;;;;;;;12.83;18.54;102709.09;4981360;28;20472;-79
2022/03/07 13:34:20;;;;;;;1.48;0.40;;;;;;;12.69;19.32;102710.22;4927815;28;20050;-77
2022/03/07 13:36:52;;;;;;;1.13;0.47;;;;;;;12.16;19.19;102703.34;4954427;28;20116;-78
2022/03/07 13:39:20;;;;;;;3.30;0.60;;;;;;;12.22;19.62;102704.09;4943872;28;20814;-77
2022/03/07 13:41:49;;;;;;;1.17;0.30;;;;;;;12.00;18.92;102703.59;4946736;28;20038;-77
2022/03/07 13:44:15;;;;;;;0.82;0.32;;;;;;;12.39;18.85;102702.91;4931291;28;20545;-76
2022/03/07 13:47:01;;;;;;;2.80;0.20;;;;;;;12.19;19.12;102704.13;4949041;28;20077;-79
2022/03/07 13:49:45;;;;;;;0.85;0.20;;;;;;;12.07;18.69;102701.72;4980914;28;21263;-78
2022/03/07 13:52:16;;;;;;;1.40;0.20;;;;;;;12.60;19.37;102699.00;4956965;28;20120;-78
2022/03/07 13:54:42;;;;;;;0.77;0.10;;;;;;;12.33;18.26;102696.00;4957982;28;20042;-78
2022/03/07 13:57:08;;;;;;;0.70;0.20;;;;;;;13.03;17.78;102695.53;4974143;23;20069;-78
2022/03/07 13:59:34;;;;;;;1.67;0.20;;;;;;;13.01;17.45;102700.81;4968814;28;20038;-79
2022/03/07 14:02:00;;;;;;;0.50;0.20;;;;;;;12.55;19.13;102693.84;5000582;28;20068;-78
2022/03/07 14:04:26;;;;;;;0.68;0.13;;;;;;;13.31;17.34;102694.00;4973359;28;20053;-78
2022/03/07 14:07:03;;;;;;;0.35;0.10;;;;;;;14.05;16.29;102694.03;4998442;28;20069;-79
2022/03/07 14:09:28;;;;;;;0.50;0.20;;;;;;;14.73;16.29;102691.31;4964849;28;20043;-79
2022/03/07 14:11:58;;;;;;;1.20;0.20;;;;;;;14.38;16.32;102688.78;4975686;28;20518;-79
2022/03/07 14:14:24;;;;;;;11.90;0.75;;;;;;;14.24;17.41;102686.53;4951166;28;20528;-77
2022/03/07 14:16:50;;;;;;;1.08;0.38;;;;;;;14.27;16.64;102689.06;4969890;28;20086;-78
2022/03/07 14:19:17;;;;;;;0.90;0.38;;;;;;;13.66;16.71;102688.88;4967610;28;20242;-77
2022/03/07 14:21:43;;;;;;;0.45;0.10;;;;;;;13.59;16.57;102682.06;4953524;28;20773;-77
2022/03/07 14:24:09;;;;;;;0.60;0.10;;;;;;;13.41;17.08;102693.84;4958526;28;20575;-76
2022/03/07 14:26:35;;;;;;;0.85;0.20;;;;;;;13.35;16.85;102686.09;4947532;28;20031;-77
2022/03/07 14:29:04;;;;;;;0.73;0.10;;;;;;;13.31;16.77;102687.91;4977190;28;20729;-77
2022/03/07 14:31:32;;;;;;;0.40;0.10;;;;;;;13.59;17.21;102689.94;4955208;28;20577;-78
2022/03/07 14:33:57;;;;;;;1.85;0.10;;;;;;;13.25;16.90;102678.41;4985247;28;20035;-76
2022/03/07 14:36:23;;;;;;;0.88;0.10;;;;;;;13.08;16.66;102684.03;4954793;28;20034;-79
2022/03/07 14:38:48;;;;;;;0.43;0.17;;;;;;;12.94;16.48;102683.47;4949720;28;20050;-78
2022/03/07 14:41:14;;;;;;;0.28;0.10;;;;;;;12.78;16.74;102674.19;4966455;28;20039;-77
2022/03/07 14:43:40;;;;;;;0.40;0.10;;;;;;;12.94;16.63;102683.47;4968751;28;20035;-78
2022/03/07 14:46:06;;;;;;;1.05;0.10;;;;;;;12.74;17.04;102680.41;4978694;28;20393;-78
2022/03/07 14:48:32;;;;;;;0.22;0.10;;;;;;;12.58;17.15;102675.44;4977682;28;20096;-78
2022/03/07 14:50:58;;;;;;;0.47;0.10;;;;;;;12.72;16.81;102671.72;4970016;28;20574;-79
2022/03/07 14:53:23;;;;;;;0.43;0.10;;;;;;;12.22;17.30;102662.16;4978765;28;20031;-77
2022/03/07 14:55:49;;;;;;;0.40;0.10;;;;;;;12.22;17.82;102667.38;4951933;28;20034;-80
2022/03/07 14:58:15;;;;;;;1.45;0.20;;;;;;;12.12;17.78;102660.56;4950426;28;20669;-79
2022/03/07 15:00:40;;;;;;;2.67;0.30;;;;;;;12.21;17.53;102655.16;4947819;28;20039;-80
2022/03/07 15:03:07;;;;;;;0.85;0.13;;;;;;;11.91;18.28;102655.69;4959659;28;20066;-78
2022/03/07 15:05:33;;;;;;;1.85;0.50;;;;;;;12.22;18.01;102662.16;4949632;28;20059;-79
2022/03/07 15:07:59;;;;;;;1.10;0.20;;;;;;;11.65;18.47;102659.59;4950248;28;20704;-79
2022/03/07 15:10:28;;;;;;;2.88;0.10;;;;;;;11.36;18.68;102649.59;4977142;28;20027;-79
2022/03/07 15:12:54;;;;;;;0.57;0.20;;;;;;;11.41;18.72;102661.69;4962018;28;20046;-80
2022/03/07 15:15:20;;;;;;;0.68;0.10;;;;;;;11.67;19.23;102652.59;4976168;28;20030;-78
2022/03/07 15:17:46;;;;;;;2.20;0.20;;;;;;;12.14;18.17;102657.94;4963513;28;20504;-78
2022/03/07 15:20:11;;;;;;;0.40;0.10;;;;;;;11.73;18.86;102649.88;4962205;28;20244;-79
2022/03/07 15:22:37;;;;;;;0.50;0.10;;;;;;;11.51;19.40;102644.09;4948085;28;20039;-80
2022/03/07 15:25:04;;;;;;;1.42;0.28;;;;;;;11.17;19.62;102646.34;4964051;28;20401;-78
2022/03/07 15:27:30;;;;;;;2.15;0.20;;;;;;;10.31;20.96;102629.97;4965649;28;20557;-78
2022/03/07 15:29:55;;;;;;;2.38;0.38;;;;;;;10.19;20.74;102627.47;4952610;28;21063;-79
2022/03/07 15:32:21;;;;;;;1.70;0.52;;;;;;;10.21;21.00;102626.59;4963041;28;20450;-77
2022/03/07 15:34:50;;;;;;;2.55;0.52;;;;;;;9.93;21.23;102635.59;4965158;28;20177;-78
2022/03/07 15:37:17;;;;;;;1.35;0.38;;;;;;;9.50;21.28;102635.88;4955198;28;21502;-78
2022/03/07 15:39:43;;;;;;;0.95;0.30;;;;;;;9.23;20.49;102623.91;4971477;28;20043;-78
2022/03/07 15:42:10;;;;;;;1.17;0.30;;;;;;;9.19;21.38;102626.53;4964939;28;20046;-78
2022/03/07 15:44:37;;;;;;;1.13;0.20;;;;;;;9.25;21.06;102625.63;4954853;28;20049;-79
2022/03/07 15:47:03;;;;;;;3.42;1.25;;;;;;;8.91;21.69;102633.63;4970427;28;20323;-78
2022/03/07 15:49:28;;;;;;;0.57;0.30;;;;;;;8.52;21.71;102625.09;4952311;28;20058;-79
2022/03/07 15:51:56;;;;;;;5.95;0.60;;;;;;;8.74;21.80;102623.31;4965308;28;20063;-79
2022/03/07 15:54:22;;;;;;;1.75;0.20;;;;;;;8.60;21.94;102630.25;4978304;28;20035;-78
2022/03/07 15:56:48;;;;;;;0.88;0.20;;;;;;;8.50;22.56;102626.84;4952064;28;20038;-79
2022/03/07 15:59:16;;;;;;;1.20;0.45;;;;;;;8.55;22.77;102621.59;4965415;28;20162;-78
2022/03/07 16:01:42;;;;;;;4.47;0.63;;;;;;;8.48;23.07;102619.91;4969746;28;20034;-80
2022/03/07 16:04:10;;;;;;;2.28;0.50;;;;;;;8.18;23.50;102618.22;4973273;28;20111;-77
2022/03/07 16:06:37;;;;;;;1.27;0.40;;;;;;;8.02;23.54;102620.84;4958854;28;20069;-79
2022/03/07 16:09:04;;;;;;;1.88;0.70;;;;;;;8.11;23.56;102620.88;4983637;28;20041;-79
2022/03/07 16:11:30;;;;;;;2.53;0.40;;;;;;;8.08;23.87;102620.00;4972269;28;20092;-78
2022/03/07 16:13:56;;;;;;;1.20;0.57;;;;;;;7.88;24.46;102622.63;4974983;28;20046;-76
2022/03/07 16:16:22;;;;;;;2.50;0.75;;;;;;;7.86;24.93;102634.78;4976266;28;20557;-76
2022/03/07 16:18:48;;;;;;;2.65;1.55;;;;;;;7.64;25.32;102629.56;4971793;28;20043;-77
2022/03/07 16:21:14;;;;;;;2.78;0.60;;;;;;;7.58;25.56;102624.38;4969412;28;20063;-77
2022/03/07 16:23:40;;;;;;;1.67;0.40;;;;;;;7.64;25.77;102628.69;4960667;28;20186;-77
2022/03/07 16:26:06;;;;;;;2.30;0.63;;;;;;;7.60;27.02;102637.34;4962538;28;20045;-78
2022/03/07 16:28:32;;;;;;;1.35;0.40;;;;;;;7.61;27.86;102646.91;4954395;28;20051;-79
2022/03/07 16:30:58;;;;;;;2.03;0.65;;;;;;;7.45;27.69;102633.00;4964946;28;20114;-79
2022/03/07 16:33:25;;;;;;;1.05;0.45;;;;;;;7.22;28.00;102632.94;4965247;28;20515;-79
2022/03/07 16:35:53;;;;;;;0.60;0.30;;;;;;;7.25;28.90;102636.41;4968947;28;20038;-77
2022/03/07 16:38:19;;;;;;;0.82;0.40;;;;;;;6.96;29.58;102638.09;4934443;28;20407;-77
2022/03/07 16:40:46;;;;;;;1.05;0.28;;;;;;;6.60;30.22;102624.94;4965066;28;20035;-78
2022/03/07 16:43:12;;;;;;;0.70;0.32;;;;;;;6.34;30.71;102637.78;4964415;28;20039;-78
2022/03/07 16:45:38;;;;;;;1.38;0.22;;;;;;;6.09;30.93;102629.81;4968709;28;20093;-77
2022/03/07 16:48:06;;;;;;;2.75;0.30;;;;;;;5.93;31.41;102640.94;4965471;28;20043;-78
2022/03/07 16:50:32;;;;;;;1.35;0.32;;;;;;;5.76;31.87;102640.78;4962239;28;20035;-78
2022/03/07 16:52:59;;;;;;;2.97;0.20;;;;;;;5.63;32.23;102641.53;4946637;28;20046;-79
2022/03/07 16:55:25;;;;;;;1.23;0.20;;;;;;;5.59;31.82;102648.44;4977433;28;20042;-78
2022/03/07 16:57:50;;;;;;;0.45;0.10;;;;;;;5.38;32.00;102648.22;4948215;28;20233;-77
2022/03/07 17:00:17;;;;;;;0.60;0.10;;;;;;;5.31;32.43;102638.66;4967808;28;20443;-78
2022/03/07 17:02:43;;;;;;;0.60;0.10;;;;;;;5.20;32.06;102642.00;4959004;28;20046;-79